Time;durP1;ratioP1;P1;durP2;ratioP2;P2;SDS_P1;SDS_P2;PMS_P1;PMS_P2;Temp;Humidity;BMP_temperature;BMP_pressure;BME280_temperature;BME280_humidity;BME280_pressure;Samples;Min_cycle;Max_cycle;Signal;HPM_P1;HPM_P2
2023/07/23 00:02:31;;;;;;;5.53;2.40;;;26.30;36.90;;;;;;6127152;28;20038;-80
2023/07/23 00:05:33;;;;;;;4.18;1.90;;;26.30;37.20;;;;;;6141849;28;20039;-81
2023/07/23 00:08:34;;;;;;;3.03;1.73;;;26.30;37.20;;;;;;6141737;29;20118;-80
2023/07/23 00:11:35;;;;;;;4.15;2.25;;;26.20;37.10;;;;;;6159752;29;20069;-80
2023/07/23 00:14:36;;;;;;;4.03;1.83;;;26.20;37.10;;;;;;6142134;29;20046;-80
2023/07/23 00:17:37;;;;;;;4.00;2.10;;;26.20;37.30;;;;;;6142485;29;20137;-80
2023/07/23 00:20:38;;;;;;;3.53;2.00;;;26.20;37.40;;;;;;6142730;29;20053;-80
2023/07/23 00:23:38;;;;;;;4.72;2.10;;;26.20;37.50;;;;;;6139665;29;20090;-81
2023/07/23 00:26:39;;;;;;;9.60;1.90;;;26.10;37.50;;;;;;6133147;29;20091;-81
2023/07/23 00:29:41;;;;;;;4.95;2.10;;;26.10;37.60;;;;;;6117826;29;20125;-81
2023/07/23 00:32:45;;;;;;;3.95;1.77;;;26.10;37.70;;;;;;6117275;29;20111;-80
2023/07/23 00:35:46;;;;;;;8.45;1.90;;;26.10;37.70;;;;;;6132600;29;20059;-80
2023/07/23 00:38:48;;;;;;;3.88;1.85;;;26.10;37.90;;;;;;6100580;29;20040;-80
2023/07/23 00:41:49;;;;;;;8.25;2.10;;;26.00;38.20;;;;;;6133750;29;20396;-80
2023/07/23 00:44:50;;;;;;;3.75;2.00;;;26.00;38.70;;;;;;6116909;29;20031;-81
2023/07/23 00:47:51;;;;;;;1.65;1.48;;;26.00;39.00;;;;;;6117051;29;20038;-82
2023/07/23 00:50:52;;;;;;;6.30;1.95;;;25.90;39.40;;;;;;6102107;29;20149;-80
2023/07/23 00:53:53;;;;;;;3.08;1.88;;;25.80;39.30;;;;;;6117272;29;20042;-81
2023/07/23 00:56:58;;;;;;;6.53;2.08;;;25.70;39.40;;;;;;6130522;29;20027;-81
2023/07/23 00:59:59;;;;;;;4.38;2.20;;;25.70;39.60;;;;;;6142535;29;20035;-81
2023/07/23 01:03:00;;;;;;;9.02;2.35;;;25.60;39.60;;;;;;6132287;29;20058;-80
2023/07/23 01:06:03;;;;;;;3.88;1.90;;;25.60;39.70;;;;;;6116635;29;20087;-79
2023/07/23 01:09:06;;;;;;;4.20;2.08;;;25.60;39.70;;;;;;6116904;29;20433;-81
2023/07/23 01:12:08;;;;;;;3.25;1.90;;;25.50;39.70;;;;;;6101697;29;20043;-80
2023/07/23 01:15:09;;;;;;;5.93;1.85;;;25.50;39.80;;;;;;6116590;29;20068;-80
2023/07/23 01:18:11;;;;;;;3.38;1.83;;;25.50;39.90;;;;;;6133980;29;20031;-80
2023/07/23 01:21:14;;;;;;;8.07;1.90;;;25.50;40.20;;;;;;6115997;29;20082;-80
2023/07/23 01:24:15;;;;;;;3.83;1.90;;;25.50;40.30;;;;;;6099805;29;20031;-81
2023/07/23 01:27:16;;;;;;;6.18;1.90;;;25.50;40.20;;;;;;6116040;29;20117;-81
2023/07/23 01:30:17;;;;;;;4.53;2.20;;;25.50;40.10;;;;;;6116793;29;20035;-80
2023/07/23 01:33:18;;;;;;;6.85;2.00;;;25.50;40.10;;;;;;6115215;29;20122;-80
2023/07/23 01:36:19;;;;;;;4.60;1.80;;;25.50;40.20;;;;;;6131730;29;20032;-80
2023/07/23 01:39:21;;;;;;;4.13;2.17;;;25.50;40.20;;;;;;6129257;29;20036;-79
2023/07/23 01:42:22;;;;;;;3.08;1.73;;;25.50;40.30;;;;;;6111785;29;20036;-80
2023/07/23 01:45:23;;;;;;;7.38;1.90;;;25.50;40.30;;;;;;6128334;29;20060;-80
2023/07/23 01:48:25;;;;;;;5.18;1.83;;;25.50;40.40;;;;;;6109980;29;20118;-80
2023/07/23 01:51:25;;;;;;;4.68;2.42;;;25.50;40.30;;;;;;6110033;29;20073;-81
2023/07/23 01:54:26;;;;;;;10.18;2.38;;;25.50;40.40;;;;;;6114563;29;20134;-81
2023/07/23 01:57:27;;;;;;;4.20;1.92;;;25.40;40.30;;;;;;6114284;29;20031;-81
2023/07/23 02:00:28;;;;;;;3.95;2.33;;;25.40;40.30;;;;;;6115561;29;20051;-81
2023/07/23 02:03:29;;;;;;;4.10;2.20;;;25.40;40.20;;;;;;6116589;29;20039;-81
2023/07/23 02:06:30;;;;;;;3.80;1.98;;;25.40;40.20;;;;;;6099562;29;20130;-79
2023/07/23 02:09:31;;;;;;;6.60;2.50;;;25.40;40.20;;;;;;6116935;29;20504;-80
2023/07/23 02:12:35;;;;;;;4.30;2.22;;;25.40;40.20;;;;;;6136768;29;20416;-82
2023/07/23 02:15:36;;;;;;;5.32;1.90;;;25.30;40.30;;;;;;6117994;29;20087;-81
2023/07/23 02:18:36;;;;;;;4.07;2.10;;;25.30;40.70;;;;;;6101276;29;20378;-81
2023/07/23 02:21:38;;;;;;;6.88;2.15;;;25.20;40.80;;;;;;6116109;29;20095;-80
2023/07/23 02:24:39;;;;;;;7.20;2.28;;;25.20;41.10;;;;;;6117736;29;20079;-80
2023/07/23 02:27:40;;;;;;;2.60;1.75;;;25.20;41.70;;;;;;6118918;29;20134;-81
2023/07/23 02:30:41;;;;;;;12.30;2.92;;;25.10;41.40;;;;;;6134641;29;20031;-82
2023/07/23 02:33:41;;;;;;;5.82;2.47;;;25.10;41.60;;;;;;6118390;29;20118;-82
2023/07/23 02:36:46;;;;;;;3.50;1.80;;;25.10;41.70;;;;;;6119213;29;20119;-81
2023/07/23 02:39:47;;;;;;;3.47;1.85;;;25.00;41.80;;;;;;6119451;29;20035;-81
2023/07/23 02:42:51;;;;;;;3.80;2.00;;;25.00;41.80;;;;;;6107747;29;20047;-81
2023/07/23 02:45:52;;;;;;;5.10;2.17;;;24.90;42.00;;;;;;6110512;29;20436;-81
2023/07/23 02:48:53;;;;;;;4.05;2.20;;;24.90;42.30;;;;;;6119560;29;20035;-83
2023/07/23 02:51:53;;;;;;;6.32;2.22;;;24.80;42.40;;;;;;6136267;29;20041;-82
2023/07/23 02:54:54;;;;;;;4.82;2.50;;;24.90;42.70;;;;;;6152612;28;20039;-83
2023/07/23 02:57:56;;;;;;;3.65;1.80;;;24.70;42.80;;;;;;6135732;29;20046;-81
2023/07/23 03:00:57;;;;;;;4.18;2.05;;;24.60;42.90;;;;;;6135637;29;20040;-82
2023/07/23 03:03:59;;;;;;;3.92;2.28;;;24.60;42.80;;;;;;6138909;29;20035;-83
2023/07/23 03:06:59;;;;;;;4.80;1.98;;;24.50;43.00;;;;;;6154942;28;20127;-84
2023/07/23 03:10:04;;;;;;;9.02;2.20;;;24.50;43.20;;;;;;6136889;29;20057;-82
2023/07/23 03:13:05;;;;;;;2.92;1.98;;;24.50;43.50;;;;;;6138491;29;20493;-81
2023/07/23 03:16:05;;;;;;;5.38;2.53;;;24.50;43.60;;;;;;6136476;29;20093;-81
2023/07/23 03:19:06;;;;;;;5.70;2.00;;;24.50;43.60;;;;;;6152247;29;20027;-82
2023/07/23 03:22:07;;;;;;;6.45;2.30;;;24.40;43.70;;;;;;6118827;29;20278;-83
2023/07/23 03:25:08;;;;;;;8.07;2.80;;;24.40;43.80;;;;;;6136533;29;20035;-81
2023/07/23 03:28:09;;;;;;;4.68;1.98;;;24.40;43.90;;;;;;6119639;29;20098;-81
2023/07/23 03:31:11;;;;;;;4.53;2.35;;;24.30;44.00;;;;;;6120109;29;20028;-82
2023/07/23 03:34:11;;;;;;;5.72;2.22;;;24.30;43.90;;;;;;6132760;29;20042;-83
2023/07/23 03:37:12;;;;;;;6.38;2.60;;;24.30;43.80;;;;;;6118192;29;20040;-81
2023/07/23 03:40:13;;;;;;;5.07;2.20;;;24.30;43.80;;;;;;6134698;29;20032;-82
2023/07/23 03:43:14;;;;;;;4.97;2.50;;;24.30;43.80;;;;;;6118911;29;20031;-82
2023/07/23 03:46:15;;;;;;;6.32;2.30;;;24.20;43.80;;;;;;6116303;29;20036;-82
2023/07/23 03:49:16;;;;;;;6.72;3.03;;;24.20;43.90;;;;;;6117297;29;20122;-81
2023/07/23 03:52:17;;;;;;;8.45;2.45;;;24.20;44.00;;;;;;6118036;29;20126;-81
2023/07/23 03:55:20;;;;;;;4.25;2.33;;;24.20;44.10;;;;;;6133609;29;20149;-82
2023/07/23 03:58:20;;;;;;;5.43;2.50;;;24.10;44.10;;;;;;6117692;29;20031;-81
2023/07/23 04:01:21;;;;;;;5.85;2.78;;;24.10;44.10;;;;;;6116998;29;20071;-81
2023/07/23 04:04:23;;;;;;;6.95;2.50;;;24.10;44.10;;;;;;6118427;29;20075;-82
2023/07/23 04:07:24;;;;;;;6.78;2.42;;;24.00;44.10;;;;;;6117981;29;20062;-81
2023/07/23 04:10:25;;;;;;;9.05;2.63;;;24.00;44.10;;;;;;6118925;29;20129;-82
2023/07/23 04:13:28;;;;;;;8.40;2.95;;;24.00;44.10;;;;;;6120141;29;20441;-81
2023/07/23 04:16:30;;;;;;;9.38;2.78;;;23.90;44.10;;;;;;6133819;29;20120;-81
2023/07/23 04:19:31;;;;;;;5.40;2.85;;;23.90;44.20;;;;;;6119339;29;20032;-82
2023/07/23 04:22:32;;;;;;;4.32;2.30;;;23.90;44.20;;;;;;6135523;29;20039;-81
2023/07/23 04:25:33;;;;;;;8.00;2.40;;;23.90;44.20;;;;;;6094029;29;20076;-83
2023/07/23 04:28:33;;;;;;;4.35;2.22;;;23.80;44.20;;;;;;6092211;29;20040;-82
2023/07/23 04:31:34;;;;;;;6.78;2.38;;;23.80;44.20;;;;;;6111081;29;20029;-82
2023/07/23 04:34:35;;;;;;;5.07;2.33;;;23.80;44.20;;;;;;6093324;29;20227;-81
2023/07/23 04:37:36;;;;;;;6.03;2.13;;;23.70;44.10;;;;;;6091632;29;20032;-81
2023/07/23 04:40:37;;;;;;;6.00;2.63;;;23.70;44.20;;;;;;6091684;29;20047;-81
2023/07/23 04:43:39;;;;;;;5.38;2.38;;;23.80;44.30;;;;;;6100240;29;20044;-80
2023/07/23 04:46:40;;;;;;;4.32;1.92;;;23.80;44.50;;;;;;6112652;29;20036;-81
2023/07/23 04:49:41;;;;;;;7.60;2.50;;;23.80;44.70;;;;;;6133185;29;20055;-80
2023/07/23 04:52:42;;;;;;;4.60;2.10;;;23.80;44.80;;;;;;6120350;29;20110;-83
2023/07/23 04:55:42;;;;;;;6.13;2.03;;;23.80;44.70;;;;;;6133465;29;20027;-81
2023/07/23 04:58:43;;;;;;;6.57;2.47;;;23.80;44.70;;;;;;6132683;29;20814;-82
2023/07/23 05:01:44;;;;;;;4.30;2.20;;;23.80;44.70;;;;;;6149577;29;20046;-81
2023/07/23 05:04:45;;;;;;;5.10;2.20;;;23.90;44.60;;;;;;6134313;29;20063;-83
2023/07/23 05:07:46;;;;;;;10.27;2.33;;;23.90;44.60;;;;;;6135106;29;20504;-81
2023/07/23 05:10:47;;;;;;;4.82;2.58;;;23.90;44.50;;;;;;6134382;29;20047;-81
2023/07/23 05:13:48;;;;;;;6.45;2.67;;;24.00;44.60;;;;;;6134141;29;20039;-83
2023/07/23 05:16:49;;;;;;;5.28;2.60;;;23.90;44.60;;;;;;6133570;29;20082;-83
2023/07/23 05:19:50;;;;;;;11.23;4.22;;;23.90;44.80;;;;;;6147442;29;20038;-81
2023/07/23 05:22:51;;;;;;;6.35;3.40;;;23.90;45.00;;;;;;6125108;29;20138;-81
2023/07/23 05:25:56;;;;;;;6.38;3.05;;;23.80;45.20;;;;;;6098579;29;20090;-83
2023/07/23 05:28:56;;;;;;;7.47;2.80;;;23.80;45.50;;;;;;6116372;29;20074;-83
2023/07/23 05:31:57;;;;;;;4.85;1.98;;;23.90;45.50;;;;;;6115277;29;20032;-82
2023/07/23 05:34:58;;;;;;;4.88;2.70;;;23.90;45.60;;;;;;6132349;29;20067;-82
2023/07/23 05:37:59;;;;;;;5.55;2.25;;;23.90;45.50;;;;;;6114508;29;20032;-81
2023/07/23 05:41:00;;;;;;;6.00;3.00;;;24.00;45.60;;;;;;6112563;29;20032;-82
2023/07/23 05:44:01;;;;;;;6.47;3.00;;;23.90;45.60;;;;;;6131302;29;20058;-82
2023/07/23 05:47:02;;;;;;;5.05;2.58;;;24.00;45.80;;;;;;6114476;29;20130;-81
2023/07/23 05:50:03;;;;;;;4.68;2.28;;;24.00;46.00;;;;;;6114168;29;20122;-80
2023/07/23 05:53:03;;;;;;;5.80;2.30;;;24.00;46.80;;;;;;6134425;29;20036;-82
2023/07/23 05:56:05;;;;;;;4.50;2.47;;;24.00;46.00;;;;;;6146527;28;20031;-82
2023/07/23 05:59:05;;;;;;;7.78;2.55;;;24.00;45.90;;;;;;6118063;29;20024;-81
2023/07/23 06:02:06;;;;;;;9.88;2.10;;;23.90;45.80;;;;;;6134905;29;20131;-82
2023/07/23 06:05:07;;;;;;;10.10;2.42;;;23.90;45.90;;;;;;6149189;29;20448;-82
2023/07/23 06:08:08;;;;;;;10.25;2.63;;;23.90;45.80;;;;;;6133457;29;20595;-81
2023/07/23 06:11:09;;;;;;;4.20;2.30;;;24.00;45.80;;;;;;6135545;29;20043;-82
2023/07/23 06:14:10;;;;;;;6.75;2.70;;;24.00;45.70;;;;;;6134868;29;20099;-81
2023/07/23 06:17:11;;;;;;;7.30;2.38;;;24.00;45.50;;;;;;6113378;29;20036;-82
2023/07/23 06:20:11;;;;;;;5.93;2.20;;;24.10;45.40;;;;;;6110346;29;20133;-80
2023/07/23 06:23:12;;;;;;;6.18;2.88;;;24.10;45.00;;;;;;6108317;29;20040;-82
2023/07/23 06:26:14;;;;;;;5.18;2.50;;;24.20;44.70;;;;;;6135008;29;20149;-83
2023/07/23 06:29:15;;;;;;;9.20;2.78;;;24.30;44.60;;;;;;6137033;29;20048;-82
2023/07/23 06:32:15;;;;;;;6.80;2.95;;;24.40;44.30;;;;;;6135554;29;20106;-82
2023/07/23 06:35:16;;;;;;;9.55;2.67;;;24.50;44.20;;;;;;6119124;29;20543;-82
2023/07/23 06:38:17;;;;;;;10.60;3.30;;;24.50;44.00;;;;;;6118646;29;20027;-82
2023/07/23 06:41:18;;;;;;;9.32;3.08;;;24.50;43.40;;;;;;6114857;29;20032;-83
2023/07/23 06:44:19;;;;;;;6.88;2.88;;;24.50;43.90;;;;;;6114784;29;20114;-81
2023/07/23 06:47:20;;;;;;;5.03;2.55;;;24.60;43.70;;;;;;6122870;29;20032;-82
2023/07/23 06:50:21;;;;;;;10.30;2.75;;;24.70;43.40;;;;;;6133336;29;20047;-81
2023/07/23 06:53:22;;;;;;;7.28;3.25;;;24.80;43.10;;;;;;6121726;29;20046;-80
2023/07/23 06:56:22;;;;;;;11.95;3.78;;;24.70;42.80;;;;;;6110957;29;20095;-81
2023/07/23 06:59:25;;;;;;;9.32;3.60;;;24.90;42.60;;;;;;6122349;29;20107;-81
2023/07/23 07:02:26;;;;;;;7.13;3.35;;;24.90;42.50;;;;;;6148195;28;20051;-80
2023/07/23 07:05:27;;;;;;;8.73;2.67;;;25.10;42.50;;;;;;6116793;29;20063;-82
2023/07/23 07:08:28;;;;;;;6.15;3.03;;;25.20;42.10;;;;;;6132872;29;20035;-83
2023/07/23 07:11:29;;;;;;;8.93;3.33;;;25.40;41.80;;;;;;6134732;29;20083;-80
2023/07/23 07:14:30;;;;;;;8.98;2.85;;;25.60;41.50;;;;;;6146195;29;20040;-80
2023/07/23 07:17:31;;;;;;;6.63;3.15;;;25.80;41.00;;;;;;6130389;29;20047;-83
2023/07/23 07:20:32;;;;;;;6.72;3.10;;;26.00;40.60;;;;;;6131455;29;20031;-83
2023/07/23 07:23:34;;;;;;;8.48;3.22;;;26.10;40.50;;;;;;6126680;29;20043;-81
2023/07/23 07:26:35;;;;;;;8.23;3.38;;;26.20;40.30;;;;;;6148717;29;20028;-80
2023/07/23 07:29:39;;;;;;;8.32;3.47;;;26.30;40.10;;;;;;6147032;29;20053;-83
2023/07/23 07:32:40;;;;;;;6.07;2.95;;;26.30;40.20;;;;;;6152158;29;20046;-81
2023/07/23 07:35:43;;;;;;;8.93;3.40;;;26.30;40.30;;;;;;6133856;28;20027;-81
2023/07/23 07:38:43;;;;;;;11.93;3.40;;;26.40;40.30;;;;;;6146699;29;20373;-82
2023/07/23 07:41:44;;;;;;;6.63;3.10;;;26.50;40.20;;;;;;6149612;29;20027;-81
2023/07/23 07:44:45;;;;;;;7.82;3.40;;;26.60;40.00;;;;;;6155962;29;20138;-81
2023/07/23 07:47:46;;;;;;;8.95;3.45;;;26.60;39.80;;;;;;6146142;29;20035;-80
2023/07/23 07:50:56;;;;;;;6.18;2.92;;;26.80;39.60;;;;;;6131030;29;20061;-81
2023/07/23 07:53:57;;;;;;;5.75;3.03;;;26.90;39.20;;;;;;6144602;29;20065;-80
2023/07/23 07:56:58;;;;;;;8.77;3.35;;;27.10;38.90;;;;;;6136263;29;20043;-80
2023/07/23 08:00:03;;;;;;;5.32;2.88;;;27.20;38.60;;;;;;6136682;29;20035;-80
2023/07/23 08:03:11;;;;;;;8.88;3.92;;;27.30;38.30;;;;;;6139026;29;20122;-79
2023/07/23 08:06:13;;;;;;;9.68;3.65;;;27.40;38.10;;;;;;6154844;28;20507;-80
2023/07/23 08:09:17;;;;;;;8.13;3.22;;;27.50;37.60;;;;;;6122556;29;20155;-80
2023/07/23 08:12:21;;;;;;;6.35;3.13;;;27.60;37.20;;;;;;6125542;29;20039;-81
2023/07/23 08:15:22;;;;;;;8.82;3.05;;;27.70;36.70;;;;;;6121276;29;20681;-80
2023/07/23 08:18:24;;;;;;;8.05;3.85;;;27.80;37.20;;;;;;6132267;29;20252;-81
2023/07/23 08:21:25;;;;;;;8.82;3.30;;;27.80;36.20;;;;;;6131915;29;20040;-81
2023/07/23 08:24:26;;;;;;;7.30;3.20;;;27.90;36.20;;;;;;6129372;29;20094;-80
2023/07/23 08:27:28;;;;;;;6.78;3.28;;;28.00;36.20;;;;;;6095769;29;20076;-79
2023/07/23 08:30:30;;;;;;;6.80;2.95;;;28.20;35.60;;;;;;6127279;29;20055;-80
2023/07/23 08:33:32;;;;;;;10.25;4.13;;;28.30;35.20;;;;;;6112358;29;20080;-79
2023/07/23 08:36:33;;;;;;;11.98;4.47;;;28.50;35.30;;;;;;6110434;29;20362;-79
2023/07/23 08:39:34;;;;;;;7.20;3.25;;;28.70;35.10;;;;;;6110798;29;20091;-80
2023/07/23 08:42:54;;;;;;;10.13;3.83;;;28.70;34.90;;;;;;6115098;29;20047;-80
2023/07/23 08:46:07;;;;;;;9.50;3.78;;;28.70;35.10;;;;;;6144200;29;20167;-81
2023/07/23 08:49:10;;;;;;;11.60;3.53;;;28.80;35.10;;;;;;6145848;28;20039;-80
2023/07/23 08:52:12;;;;;;;7.53;3.67;;;28.80;34.70;;;;;;6131873;29;20066;-80
2023/07/23 08:55:13;;;;;;;6.35;3.17;;;28.90;34.60;;;;;;6144599;29;20046;-79
2023/07/23 08:58:21;;;;;;;7.38;3.70;;;29.00;34.50;;;;;;6128400;29;20069;-82
2023/07/23 09:01:23;;;;;;;;;;;29.10;34.50;;;;;;6128341;29;20045;-80
2023/07/23 09:04:24;;;;;;;7.13;3.63;;;29.30;34.50;;;;;;6112276;29;19969;-81
2023/07/23 09:07:25;;;;;;;7.20;3.17;;;29.30;34.40;;;;;;6145480;28;20035;-79
2023/07/23 09:10:26;;;;;;;9.68;4.03;;;29.40;34.80;;;;;;6132453;29;20039;-81
2023/07/23 09:13:34;;;;;;;7.47;3.42;;;29.60;34.40;;;;;;6132980;29;20063;-81
2023/07/23 09:16:41;;;;;;;9.52;4.13;;;29.70;34.30;;;;;;6146226;28;20019;-81
2023/07/23 09:19:42;;;;;;;8.75;3.60;;;29.90;34.20;;;;;;6130177;29;20126;-82
2023/07/23 09:22:43;;;;;;;10.27;4.40;;;30.00;33.90;;;;;;6142436;29;20039;-81
2023/07/23 09:25:44;;;;;;;10.90;4.03;;;30.10;34.00;;;;;;6131382;29;20056;-81
2023/07/23 09:28:45;;;;;;;9.10;4.00;;;30.10;34.00;;;;;;6115465;29;20032;-80
2023/07/23 09:31:49;;;;;;;12.32;3.75;;;30.30;34.10;;;;;;6114331;29;20031;-81
2023/07/23 09:34:49;;;;;;;9.65;3.30;;;30.50;34.00;;;;;;6098906;29;20430;-80
2023/07/23 09:37:58;;;;;;;9.68;4.20;;;30.70;33.70;;;;;;6113497;29;20028;-81
2023/07/23 09:40:59;;;;;;;16.73;4.50;;;31.00;33.30;;;;;;6113229;29;20035;-82
2023/07/23 09:44:08;;;;;;;7.40;4.07;;;31.10;33.00;;;;;;6089949;29;20134;-80
2023/07/23 09:47:09;;;;;;;8.98;4.28;;;31.20;32.90;;;;;;6106158;29;20048;-79
2023/07/23 09:50:10;;;;;;;8.60;4.47;;;31.40;32.70;;;;;;6108765;29;20032;-80
2023/07/23 09:53:15;;;;;;;14.40;5.28;;;31.50;32.10;;;;;;6121494;29;20128;-79
2023/07/23 09:56:18;;;;;;;12.63;4.68;;;31.60;31.90;;;;;;6131221;29;20456;-81
2023/07/23 09:59:20;;;;;;;10.38;4.85;;;31.70;32.00;;;;;;6129808;29;20405;-80
2023/07/23 10:02:23;;;;;;;13.63;5.57;;;31.80;31.80;;;;;;6112943;29;20126;-81
2023/07/23 10:05:25;;;;;;;14.98;5.38;;;32.00;31.30;;;;;;6113771;29;20125;-81
2023/07/23 10:08:34;;;;;;;14.63;6.47;;;32.30;31.00;;;;;;6113816;29;20051;-81
2023/07/23 10:11:35;;;;;;;13.93;6.15;;;32.40;30.70;;;;;;6115278;29;20027;-81
2023/07/23 10:14:36;;;;;;;12.98;6.18;;;32.60;30.30;;;;;;6131020;29;20796;-81
2023/07/23 10:17:44;;;;;;;15.98;6.30;;;32.80;29.90;;;;;;6131052;29;20046;-81
2023/07/23 10:20:45;;;;;;;14.23;5.50;;;32.80;29.70;;;;;;6152063;29;20480;-82
2023/07/23 10:23:55;;;;;;;14.35;6.43;;;32.90;29.30;;;;;;6128381;29;20095;-79
2023/07/23 10:26:56;;;;;;;24.15;6.93;;;33.00;29.20;;;;;;6138274;29;20032;-82
2023/07/23 10:30:18;;;;;;;13.20;5.28;;;33.10;29.00;;;;;;6132363;29;20039;-80
2023/07/23 10:33:25;;;;;;;16.23;6.82;;;33.30;29.00;;;;;;6111469;29;20039;-79
2023/07/23 10:36:26;;;;;;;16.23;7.03;;;33.50;28.70;;;;;;6127857;29;20468;-80
2023/07/23 10:39:38;;;;;;;25.20;7.22;;;33.70;28.40;;;;;;6112673;29;20044;-80
2023/07/23 10:42:41;;;;;;;19.33;7.65;;;33.90;28.30;;;;;;6113666;29;20044;-79
2023/07/23 10:45:49;;;;;;;17.35;7.50;;;34.30;27.60;;;;;;6132647;29;20685;-80
2023/07/23 10:48:50;;;;;;;;;;;34.40;27.40;;;;;;6134194;29;20051;-79
2023/07/23 10:51:52;;;;;;;16.65;6.93;;;34.60;26.80;;;;;;6115675;29;19917;-78
2023/07/23 10:54:54;;;;;;;15.40;5.90;;;34.80;26.50;;;;;;6133061;29;20039;-80
2023/07/23 10:57:56;;;;;;;17.33;7.15;;;34.90;26.40;;;;;;6100602;29;20140;-79
2023/07/23 11:00:59;;;;;;;14.30;7.15;;;35.20;26.50;;;;;;6115740;29;20039;-80
2023/07/23 11:04:00;;;;;;;14.18;6.70;;;35.30;26.10;;;;;;6134136;29;20389;-81
2023/07/23 11:07:04;;;;;;;15.20;6.53;;;35.80;26.10;;;;;;6118109;29;20115;-79
2023/07/23 11:10:19;;;;;;;12.07;6.05;;;36.20;25.40;;;;;;6117747;29;20102;-78
2023/07/23 11:13:21;;;;;;;17.90;7.32;;;37.00;25.40;;;;;;6132636;29;20043;-79
2023/07/23 11:16:22;;;;;;;16.05;7.00;;;37.30;24.70;;;;;;6132824;29;20418;-80
2023/07/23 11:19:24;;;;;;;14.35;7.13;;;37.60;24.20;;;;;;6133830;29;20063;-80
2023/07/23 11:22:25;;;;;;;15.65;6.90;;;38.20;24.00;;;;;;6116746;29;20075;-79
2023/07/23 11:25:26;;;;;;;16.05;6.35;;;38.90;23.50;;;;;;6132833;29;20150;-79
2023/07/23 11:28:27;;;;;;;15.10;6.72;;;39.20;22.90;;;;;;6116961;29;20039;-81
2023/07/23 11:31:29;;;;;;;16.98;7.60;;;39.00;22.50;;;;;;6132795;29;20409;-79
2023/07/23 11:34:30;;;;;;;11.88;6.22;;;38.90;22.70;;;;;;6134310;29;20031;-78
2023/07/23 11:37:31;;;;;;;15.65;6.97;;;38.60;22.80;;;;;;6129334;29;20036;-80
2023/07/23 11:40:33;;;;;;;15.25;6.82;;;38.50;23.00;;;;;;6115228;29;20043;-79
2023/07/23 11:43:34;;;;;;;12.60;6.32;;;38.70;22.90;;;;;;6132161;29;20696;-80
2023/07/23 11:46:41;;;;;;;17.67;6.75;;;39.10;22.50;;;;;;6115301;29;20036;-79
2023/07/23 11:49:42;;;;;;;14.50;7.30;;;39.30;22.00;;;;;;6135177;29;20130;-79
2023/07/23 11:52:43;;;;;;;13.48;6.95;;;39.30;22.00;;;;;;6134384;29;20036;-82
2023/07/23 11:55:44;;;;;;;11.88;5.97;;;39.20;22.00;;;;;;6116869;29;20110;-80
2023/07/23 11:58:44;;;;;;;13.20;6.10;;;38.90;22.30;;;;;;6133676;29;20038;-80
2023/07/23 12:01:46;;;;;;;14.88;7.03;;;38.50;22.80;;;;;;6116468;29;20032;-80
2023/07/23 12:04:47;;;;;;;12.85;6.22;;;38.30;23.20;;;;;;6118569;29;20039;-80
2023/07/23 12:07:50;;;;;;;12.90;6.32;;;37.90;23.50;;;;;;6118000;29;20043;-80
2023/07/23 12:10:51;;;;;;;19.10;7.63;;;37.50;23.70;;;;;;6122033;29;20054;-79
2023/07/23 12:13:54;;;;;;;14.70;7.00;;;37.30;23.90;;;;;;6141066;28;20424;-80
2023/07/23 12:16:56;;;;;;;16.05;6.63;;;37.50;24.00;;;;;;6142128;29;20031;-81
2023/07/23 12:19:57;;;;;;;11.80;5.80;;;38.00;23.60;;;;;;6144603;29;20027;-81
2023/07/23 12:23:01;;;;;;;12.65;6.18;;;38.00;23.60;;;;;;6147209;29;20028;-80
2023/07/23 12:26:02;;;;;;;15.75;6.75;;;37.80;23.90;;;;;;6136526;29;20527;-81
2023/07/23 12:29:04;;;;;;;13.23;6.72;;;38.00;23.70;;;;;;6135252;29;20051;-81
2023/07/23 12:32:16;;;;;;;20.08;7.13;;;38.20;23.40;;;;;;6118171;29;20083;-82
2023/07/23 12:35:17;;;;;;;16.42;7.38;;;38.70;22.90;;;;;;6118042;29;20052;-79
2023/07/23 12:38:18;;;;;;;12.82;6.70;;;39.10;22.40;;;;;;6117573;29;20032;-81
2023/07/23 12:41:19;;;;;;;18.50;6.90;;;39.20;22.00;;;;;;6118132;29;20226;-80
2023/07/23 12:44:20;;;;;;;13.93;7.15;;;39.00;22.10;;;;;;6134453;29;20032;-83
2023/07/23 12:47:21;;;;;;;16.38;7.70;;;38.70;22.30;;;;;;6134665;29;20055;-80
2023/07/23 12:50:22;;;;;;;17.00;7.15;;;39.00;22.20;;;;;;6134073;29;20104;-80
2023/07/23 12:53:23;;;;;;;15.10;7.35;;;39.60;21.80;;;;;;6148439;29;20682;-81
2023/07/23 12:56:23;;;;;;;13.75;6.70;;;39.70;21.60;;;;;;6133141;29;20038;-79
2023/07/23 12:59:24;;;;;;;17.52;7.40;;;40.40;21.30;;;;;;6133712;29;20130;-79
2023/07/23 13:02:25;;;;;;;13.77;7.05;;;41.30;20.60;;;;;;6115292;29;20047;-80
2023/07/23 13:05:26;;;;;;;15.10;7.13;;;42.20;19.90;;;;;;6132685;29;20050;-79
2023/07/23 13:08:27;;;;;;;16.52;6.93;;;43.00;19.30;;;;;;6123975;29;20124;-78
2023/07/23 13:11:28;;;;;;;14.35;7.35;;;43.00;19.10;;;;;;6137486;29;20043;-80
2023/07/23 13:14:29;;;;;;;16.80;7.55;;;43.40;18.90;;;;;;6140947;29;20377;-78
2023/07/23 13:17:30;;;;;;;15.15;6.90;;;43.80;18.50;;;;;;6117252;29;20035;-79
2023/07/23 13:20:31;;;;;;;14.40;7.80;;;44.00;18.30;;;;;;6131666;29;20420;-81
2023/07/23 13:23:31;;;;;;;14.65;8.10;;;44.60;17.70;;;;;;6129846;29;20134;-81
2023/07/23 13:26:32;;;;;;;10.68;6.50;;;45.00;17.30;;;;;;6116719;29;20044;-82
2023/07/23 13:29:33;;;;;;;14.05;7.22;;;45.10;17.30;;;;;;6117020;29;20040;-80
2023/07/23 13:32:34;;;;;;;12.35;7.05;;;45.40;17.30;;;;;;6113655;29;20456;-79
2023/07/23 13:35:35;;;;;;;13.20;7.10;;;45.50;17.20;;;;;;6130899;29;20036;-80
2023/07/23 13:38:36;;;;;;;12.57;6.82;;;45.70;17.20;;;;;;6128243;29;20032;-79
2023/07/23 13:41:36;;;;;;;13.75;6.70;;;46.40;16.90;;;;;;6096750;29;20099;-78
2023/07/23 13:44:37;;;;;;;14.50;7.90;;;47.40;16.20;;;;;;6130837;29;20055;-79
2023/07/23 13:47:38;;;;;;;14.82;7.47;;;48.00;16.00;;;;;;6132030;29;20585;-79
2023/07/23 13:50:39;;;;;;;15.10;7.40;;;48.50;15.20;;;;;;6111625;29;20051;-80
2023/07/23 13:53:40;;;;;;;12.57;7.25;;;48.90;14.80;;;;;;6108252;29;20036;-79
2023/07/23 13:56:41;;;;;;;14.02;6.93;;;49.30;14.60;;;;;;6105643;29;20032;-79
2023/07/23 13:59:42;;;;;;;13.43;7.22;;;49.20;14.70;;;;;;6087724;29;20067;-78
2023/07/23 14:02:43;;;;;;;10.75;5.68;;;49.60;14.60;;;;;;6104562;29;20032;-79
2023/07/23 14:05:44;;;;;;;12.35;6.43;;;49.90;14.40;;;;;;6154369;28;20031;-80
2023/07/23 14:08:44;;;;;;;18.45;8.13;;;49.40;14.60;;;;;;6153667;29;20039;-78
2023/07/23 14:11:45;;;;;;;13.07;7.03;;;48.50;14.40;;;;;;6150344;29;20039;-78
2023/07/23 14:14:46;;;;;;;14.93;7.43;;;48.60;14.30;;;;;;6134127;29;20035;-78
2023/07/23 14:17:48;;;;;;;13.50;7.40;;;49.10;14.50;;;;;;6153943;28;20036;-77
2023/07/23 14:20:49;;;;;;;16.60;6.78;;;49.80;14.40;;;;;;6137950;29;20050;-78
2023/07/23 14:23:50;;;;;;;12.98;6.68;;;50.20;14.30;;;;;;6134444;28;20444;-79
2023/07/23 14:26:51;;;;;;;14.27;6.65;;;50.60;14.20;;;;;;6114540;29;20102;-78
2023/07/23 14:29:52;;;;;;;12.45;6.45;;;50.60;14.20;;;;;;6116281;29;20119;-80
2023/07/23 14:32:53;;;;;;;13.80;7.68;;;50.50;14.10;;;;;;6117355;29;20338;-79
2023/07/23 14:35:55;;;;;;;14.68;7.25;;;50.50;13.90;;;;;;6121865;29;20042;-78
2023/07/23 14:38:58;;;;;;;13.75;7.00;;;50.60;13.60;;;;;;6133437;29;20071;-78
2023/07/23 14:41:59;;;;;;;14.82;7.13;;;50.40;13.60;;;;;;6115260;29;20130;-79
2023/07/23 14:44:59;;;;;;;12.00;7.07;;;50.00;13.60;;;;;;6133170;29;20103;-77
2023/07/23 14:48:00;;;;;;;13.18;7.40;;;49.90;13.80;;;;;;6132657;29;20032;-78
2023/07/23 14:51:01;;;;;;;14.15;7.28;;;50.10;13.90;;;;;;6130963;29;20470;-77
2023/07/23 14:54:02;;;;;;;12.98;7.55;;;50.30;13.70;;;;;;6113745;29;20107;-79
2023/07/23 14:57:04;;;;;;;14.13;7.18;;;50.50;13.50;;;;;;6135774;29;20108;-80
2023/07/23 15:00:06;;;;;;;11.77;6.72;;;50.70;13.30;;;;;;6125314;29;20444;-80
2023/07/23 15:03:08;;;;;;;13.10;6.82;;;50.40;13.20;;;;;;6142565;29;20110;-79
2023/07/23 15:06:09;;;;;;;12.23;7.05;;;50.10;13.20;;;;;;6158519;28;20045;-78
2023/07/23 15:09:12;;;;;;;15.15;7.68;;;49.60;13.50;;;;;;6142698;29;20039;-80
2023/07/23 15:12:13;;;;;;;14.35;7.22;;;48.60;13.80;;;;;;6140722;29;20039;-78
2023/07/23 15:15:15;;;;;;;13.55;7.22;;;47.60;14.30;;;;;;6122764;28;20062;-79
2023/07/23 15:18:16;;;;;;;20.45;7.85;;;46.50;14.60;;;;;;6138981;29;20035;-78
2023/07/23 15:21:17;;;;;;;12.77;6.43;;;45.60;15.00;;;;;;6157860;28;20039;-82
2023/07/23 15:24:18;;;;;;;13.10;7.75;;;44.80;15.50;;;;;;6133494;29;20086;-77
2023/07/23 15:27:21;;;;;;;14.15;5.93;;;44.20;15.80;;;;;;6130776;29;20520;-79
2023/07/23 15:30:22;;;;;;;15.38;7.78;;;44.50;15.60;;;;;;6114732;29;20065;-79
2023/07/23 15:33:22;;;;;;;12.43;6.55;;;45.40;15.40;;;;;;6113563;29;20575;-78
2023/07/23 15:36:23;;;;;;;13.90;7.43;;;46.30;14.80;;;;;;6130890;29;20035;-79
2023/07/23 15:39:24;;;;;;;14.63;7.60;;;47.10;14.70;;;;;;6115542;29;20027;-79
2023/07/23 15:42:25;;;;;;;13.90;7.30;;;47.70;13.60;;;;;;6113788;29;20035;-79